createdAt,value
2023-04-25T00:02:10.124Z,98213.13
2023-04-25T00:04:39.666Z,98218.63
2023-04-25T00:07:06.824Z,98215.31
2023-04-25T00:09:33.755Z,98211.22
2023-04-25T00:12:00.582Z,98213.69
2023-04-25T00:14:28.995Z,98210.09
2023-04-25T00:16:56.107Z,98211.06
2023-04-25T00:19:23.158Z,98216.97
2023-04-25T00:21:50.356Z,98212.56
2023-04-25T00:24:17.393Z,98214.50
2023-04-25T00:26:44.248Z,98213.66
2023-04-25T00:29:11.551Z,98214.47
2023-04-25T00:31:41.484Z,98222.81
2023-04-25T00:34:09.572Z,98217.72
2023-04-25T00:36:36.395Z,98224.19
2023-04-25T00:39:04.064Z,98223.50
2023-04-25T00:41:31.724Z,98222.09
2023-04-25T00:43:59.205Z,98234.31
2023-04-25T00:46:26.001Z,98217.16
2023-04-25T00:48:52.943Z,98225.91
2023-04-25T00:51:21.853Z,98224.38
2023-04-25T00:53:51.557Z,98213.28
2023-04-25T00:56:19.059Z,98218.31
2023-04-25T00:58:45.980Z,98209.69
2023-04-25T01:01:13.164Z,98206.44
2023-04-25T01:03:44.225Z,98203.50
2023-04-25T01:06:11.921Z,98198.28
2023-04-25T01:08:40.121Z,98201.56
2023-04-25T01:11:07.335Z,98200.56
2023-04-25T01:13:34.897Z,98206.91
2023-04-25T01:16:02.671Z,98204.97
2023-04-25T01:18:29.767Z,98202.38
2023-04-25T01:24:24.938Z,98207.84
2023-04-25T01:26:52.136Z,98208.28
2023-04-25T01:29:19.840Z,98204.13
2023-04-25T01:31:47.346Z,98205.69
2023-04-25T01:34:14.561Z,98210.47
2023-04-25T01:36:41.802Z,98211.78
2023-04-25T01:39:09.040Z,98207.03
2023-04-25T01:41:36.132Z,98208.16
2023-04-25T01:44:03.146Z,98205.13
2023-04-25T01:46:32.022Z,98210.34
2023-04-25T01:48:58.997Z,98207.72
2023-04-25T01:51:25.901Z,98214.75
2023-04-25T01:53:53.085Z,98212.38
2023-04-25T01:56:20.305Z,98211.84
2023-04-25T01:58:47.215Z,98208.16
2023-04-25T02:01:14.274Z,98213.53
2023-04-25T02:03:41.528Z,98215.97
2023-04-25T02:06:08.561Z,98214.84
2023-04-25T02:08:35.448Z,98214.28
2023-04-25T02:11:02.302Z,98222.47
2023-04-25T02:13:29.143Z,98221.91
2023-04-25T02:15:56.153Z,98216.34
2023-04-25T02:18:23.025Z,98221.47
2023-04-25T02:20:50.117Z,98212.53
2023-04-25T02:23:16.824Z,98207.22
2023-04-25T02:25:43.605Z,98217.09
2023-04-25T02:28:10.651Z,98213.81
2023-04-25T02:30:37.664Z,98208.22
2023-04-25T02:33:04.455Z,98214.53
2023-04-25T02:35:31.231Z,98216.75
2023-04-25T02:37:58.613Z,98213.94
2023-04-25T02:40:25.336Z,98210.88
2023-04-25T02:42:53.028Z,98214.44
2023-04-25T02:45:19.787Z,98215.22
2023-04-25T02:47:46.557Z,98212.19
2023-04-25T02:50:13.665Z,98217.94
2023-04-25T02:52:40.414Z,98214.34
2023-04-25T02:55:07.677Z,98207.97
2023-04-25T02:57:34.511Z,98216.78
2023-04-25T03:00:01.344Z,98211.59
2023-04-25T03:02:28.256Z,98211.16
2023-04-25T03:04:55.249Z,98216.94
2023-04-25T03:07:22.087Z,98213.44
2023-04-25T03:09:49.049Z,98216.53
2023-04-25T03:12:17.174Z,98212.03
2023-04-25T03:14:43.892Z,98207.00
2023-04-25T03:17:11.653Z,98206.38
2023-04-25T03:19:38.464Z,98208.75
2023-04-25T03:22:05.293Z,98213.72
2023-04-25T03:24:31.999Z,98203.81
2023-04-25T03:26:58.723Z,98209.09
2023-04-25T03:29:27.745Z,98219.16
2023-04-25T03:31:54.629Z,98214.91
2023-04-25T03:34:22.691Z,98215.41
2023-04-25T03:36:49.516Z,98218.47
2023-04-25T03:39:16.442Z,98212.84
2023-04-25T03:41:43.265Z,98222.75
2023-04-25T03:44:10.403Z,98228.63
2023-04-25T03:46:37.244Z,98226.84
2023-04-25T03:49:04.013Z,98231.84
2023-04-25T03:51:32.191Z,98232.56
2023-04-25T03:53:59.875Z,98225.84
2023-04-25T03:56:26.821Z,98228.44
2023-04-25T03:58:53.866Z,98227.53
2023-04-25T04:01:22.103Z,98229.66
2023-04-25T04:03:48.925Z,98229.91
2023-04-25T04:06:16.479Z,98234.53
2023-04-25T04:08:43.524Z,98239.25
2023-04-25T04:11:10.440Z,98241.25
2023-04-25T04:13:37.242Z,98244.22
2023-04-25T04:16:05.627Z,98240.06
2023-04-25T04:18:32.712Z,98252.00
2023-04-25T04:21:00.034Z,98255.44
2023-04-25T04:23:28.487Z,98248.34
2023-04-25T04:25:57.699Z,98237.84
2023-04-25T04:28:24.947Z,98252.28
2023-04-25T04:30:52.496Z,98249.03
2023-04-25T04:33:22.705Z,98247.38
2023-04-25T04:35:49.983Z,98250.91
2023-04-25T04:38:17.188Z,98261.19
2023-04-25T04:40:44.440Z,98260.63
2023-04-25T04:43:11.813Z,98261.09
2023-04-25T04:45:41.876Z,98270.28
2023-04-25T04:48:08.733Z,98279.16
2023-04-25T04:50:36.908Z,98269.38
2023-04-25T04:53:05.606Z,98277.16
2023-04-25T04:55:32.409Z,98273.34
2023-04-25T04:57:59.220Z,98270.41
2023-04-25T05:00:29.128Z,98277.44
2023-04-25T05:02:57.416Z,98273.53
2023-04-25T05:05:24.648Z,98279.66
2023-04-25T05:07:51.433Z,98278.94
2023-04-25T05:10:19.733Z,98278.44
2023-04-25T05:12:46.723Z,98278.41
2023-04-25T05:15:13.520Z,98286.19
2023-04-25T05:17:41.018Z,98292.22
2023-04-25T05:20:10.312Z,98278.13
2023-04-25T05:22:37.345Z,98285.47
2023-04-25T05:25:05.005Z,98290.69
2023-04-25T05:27:31.802Z,98287.34
2023-04-25T05:29:58.607Z,98293.84
2023-04-25T05:32:26.675Z,98301.25
2023-04-25T05:34:54.072Z,98301.25
2023-04-25T05:37:20.860Z,98298.88
2023-04-25T05:39:47.834Z,98298.38
2023-04-25T05:42:14.636Z,98296.22
2023-04-25T05:44:41.399Z,98291.81
2023-04-25T05:47:08.180Z,98293.78
2023-04-25T05:49:36.028Z,98296.31
2023-04-25T05:52:02.784Z,98302.88
2023-04-25T05:54:30.362Z,98311.34
2023-04-25T05:57:03.698Z,98309.03
2023-04-25T05:59:31.592Z,98303.81
2023-04-25T06:01:59.073Z,98313.03
2023-04-25T06:04:27.090Z,98312.84
2023-04-25T06:06:54.085Z,98313.72
2023-04-25T06:09:22.380Z,98309.34
2023-04-25T06:11:49.111Z,98321.63
2023-04-25T06:14:15.870Z,98316.44
2023-04-25T06:16:42.741Z,98315.66
2023-04-25T06:19:09.819Z,98320.91
2023-04-25T06:21:37.316Z,98322.63
2023-04-25T06:24:05.378Z,98323.19
2023-04-25T06:26:32.572Z,98321.88
2023-04-25T06:29:00.031Z,98327.38
2023-04-25T06:31:27.456Z,98327.97
2023-04-25T06:33:56.124Z,98326.56
2023-04-25T06:36:27.149Z,98321.63
2023-04-25T06:38:54.279Z,98333.97
2023-04-25T06:41:22.211Z,98331.28
2023-04-25T06:43:48.963Z,98333.47
2023-04-25T06:46:15.949Z,98341.97
2023-04-25T06:48:42.980Z,98341.41
2023-04-25T06:51:09.699Z,98347.19
2023-04-25T06:53:36.870Z,98335.41
2023-04-25T06:56:04.406Z,98346.09
2023-04-25T06:58:31.738Z,98343.63
2023-04-25T07:00:59.418Z,98352.69
2023-04-25T07:03:26.551Z,98354.47
2023-04-25T07:05:53.489Z,98359.44
2023-04-25T07:08:21.072Z,98350.50
2023-04-25T07:10:49.603Z,98357.63
2023-04-25T07:13:16.875Z,98357.91
2023-04-25T07:15:44.987Z,98363.97
2023-04-25T07:18:13.103Z,98360.94
2023-04-25T07:20:40.090Z,98370.84
2023-04-25T07:23:07.019Z,98368.78
2023-04-25T07:25:33.896Z,98371.81
2023-04-25T07:28:01.351Z,98374.41
2023-04-25T07:30:28.417Z,98368.63
2023-04-25T07:32:55.983Z,98370.84
2023-04-25T07:35:22.958Z,98379.75
2023-04-25T07:37:49.804Z,98392.31
2023-04-25T07:40:17.781Z,98389.25
2023-04-25T07:42:44.567Z,98394.06
2023-04-25T07:45:12.475Z,98394.88
2023-04-25T07:47:39.976Z,98388.97
2023-04-25T07:50:08.096Z,98398.19
2023-04-25T07:52:34.953Z,98400.41
2023-04-25T07:55:01.873Z,98405.22
2023-04-25T07:57:28.866Z,98412.91
2023-04-25T07:59:55.659Z,98411.66
2023-04-25T08:02:22.416Z,98420.75
2023-04-25T08:04:51.012Z,98421.44
2023-04-25T08:07:18.185Z,98419.50
2023-04-25T08:09:45.116Z,98424.72
2023-04-25T08:12:12.375Z,98424.03
2023-04-25T08:14:41.131Z,98429.56
2023-04-25T08:17:07.958Z,98435.47
2023-04-25T08:19:34.727Z,98432.44
2023-04-25T08:22:01.600Z,98437.50
2023-04-25T08:24:28.947Z,98449.75
2023-04-25T08:26:56.799Z,98452.78
2023-04-25T08:29:25.396Z,98455.97
2023-04-25T08:31:54.075Z,98465.03
2023-04-25T08:34:22.254Z,98461.44
2023-04-25T08:36:49.317Z,98474.50
2023-04-25T08:39:16.175Z,98467.09
2023-04-25T08:41:43.194Z,98467.22
2023-04-25T08:44:12.767Z,98466.28
2023-04-25T08:46:43.585Z,98477.56
2023-04-25T08:49:10.618Z,98478.81
2023-04-25T08:51:46.702Z,98474.97
2023-04-25T08:56:47.032Z,98481.97
2023-04-25T08:59:14.029Z,98477.50
2023-04-25T09:01:41.395Z,98477.09
2023-04-25T09:04:08.604Z,98478.03
2023-04-25T09:06:36.465Z,98485.44
2023-04-25T09:09:06.011Z,98469.56
2023-04-25T09:11:34.106Z,98472.69
2023-04-25T09:14:22.119Z,98482.06
2023-04-25T09:16:58.935Z,98478.00
2023-04-25T09:19:39.825Z,98491.66
2023-04-25T09:22:08.540Z,98489.56
2023-04-25T09:24:47.265Z,98485.16
2023-04-25T09:27:21.183Z,98488.84
2023-04-25T09:29:48.030Z,98489.34
2023-04-25T09:32:20.981Z,98497.44
2023-04-25T09:34:53.806Z,98487.56
2023-04-25T09:37:28.398Z,98489.84
2023-04-25T09:40:06.811Z,98496.94
2023-04-25T09:42:35.890Z,98496.84
2023-04-25T09:45:03.547Z,98500.16
2023-04-25T09:47:31.058Z,98507.53
2023-04-25T09:49:57.879Z,98511.66
2023-04-25T09:52:26.335Z,98505.16
2023-04-25T09:54:55.038Z,98516.91
2023-04-25T09:57:24.105Z,98507.69
2023-04-25T09:59:53.415Z,98508.34
2023-04-25T10:02:22.589Z,98522.94
2023-04-25T10:04:54.415Z,98515.84
2023-04-25T10:07:27.629Z,98523.28
2023-04-25T10:10:03.108Z,98517.09
2023-04-25T10:12:30.536Z,98538.66
2023-04-25T10:14:58.706Z,98536.44
2023-04-25T10:17:26.239Z,98535.34
2023-04-25T10:19:53.424Z,98534.03
2023-04-25T10:22:35.627Z,98541.25
2023-04-25T10:25:05.559Z,98550.44
2023-04-25T10:27:32.909Z,98552.28
2023-04-25T10:30:24.289Z,98548.00
2023-04-25T10:32:52.891Z,98551.38
2023-04-25T10:35:25.804Z,98549.53
2023-04-25T10:38:19.292Z,98547.50
2023-04-25T10:41:05.245Z,98545.78
2023-04-25T10:43:42.816Z,98545.34
2023-04-25T10:46:27.179Z,98544.19
2023-04-25T10:48:54.773Z,98549.78
2023-04-25T10:51:26.761Z,98545.56
2023-04-25T10:54:11.652Z,98556.25
2023-04-25T10:56:45.660Z,98557.16
2023-04-25T10:59:14.734Z,98560.22
2023-04-25T11:01:43.357Z,98561.34
2023-04-25T11:04:37.441Z,98558.28
2023-04-25T11:07:36.347Z,98544.72
2023-04-25T11:10:07.536Z,98557.22
2023-04-25T11:12:34.647Z,98549.78
2023-04-25T11:15:06.654Z,98561.19
2023-04-25T11:17:34.492Z,98561.13
2023-04-25T11:20:02.005Z,98563.97
2023-04-25T11:22:29.246Z,98561.88
2023-04-25T11:24:56.287Z,98566.34
2023-04-25T11:27:23.735Z,98576.28
2023-04-25T11:29:51.692Z,98580.06
2023-04-25T11:32:21.460Z,98585.53
2023-04-25T11:34:48.834Z,98599.03
2023-04-25T11:37:16.147Z,98592.22
2023-04-25T11:39:50.269Z,98585.50
2023-04-25T11:42:18.892Z,98587.41
2023-04-25T11:44:46.002Z,98589.88
2023-04-25T11:47:13.051Z,98592.44
2023-04-25T11:49:39.946Z,98588.50
2023-04-25T11:52:08.692Z,98597.38
2023-04-25T11:54:38.779Z,98597.63
2023-04-25T11:57:06.136Z,98587.38
2023-04-25T11:59:33.289Z,98593.94
2023-04-25T12:02:02.937Z,98600.41
2023-04-25T12:04:32.513Z,98594.91
2023-04-25T12:07:01.876Z,98596.94
2023-04-25T12:09:30.953Z,98588.78
2023-04-25T12:12:05.242Z,98596.53
2023-04-25T12:14:34.849Z,98606.19
2023-04-25T12:17:03.866Z,98611.72
2023-04-25T12:19:35.503Z,98620.66
2023-04-25T12:22:21.470Z,98618.03
2023-04-25T12:24:48.530Z,98611.16
2023-04-25T12:27:21.306Z,98615.91
2023-04-25T12:29:58.400Z,98614.41
2023-04-25T12:32:25.651Z,98625.25
2023-04-25T12:34:52.473Z,98620.69
2023-04-25T12:37:19.472Z,98635.09
2023-04-25T12:39:47.366Z,98636.75
2023-04-25T12:42:14.156Z,98626.66
2023-04-25T12:44:41.819Z,98631.50
2023-04-25T12:47:09.218Z,98635.13
2023-04-25T12:49:36.203Z,98633.03
2023-04-25T12:52:02.999Z,98632.56
2023-04-25T12:54:29.838Z,98628.97
2023-04-25T12:56:56.831Z,98631.31
2023-04-25T12:59:23.666Z,98639.53
2023-04-25T13:01:50.808Z,98634.97
2023-04-25T13:04:17.758Z,98644.28
2023-04-25T13:06:44.835Z,98636.38
2023-04-25T13:09:13.926Z,98650.63
2023-04-25T13:11:42.065Z,98646.31
2023-04-25T13:14:09.257Z,98639.44
2023-04-25T13:16:36.928Z,98649.81
2023-04-25T13:19:04.104Z,98648.72
2023-04-25T13:21:33.694Z,98643.06
2023-04-25T13:24:00.946Z,98653.19
2023-04-25T13:26:27.961Z,98654.38
2023-04-25T13:28:54.857Z,98657.72
2023-04-25T13:31:22.455Z,98652.69
2023-04-25T13:33:50.053Z,98660.09
2023-04-25T13:36:17.304Z,98659.56
2023-04-25T13:38:45.373Z,98643.34
2023-04-25T13:41:17.094Z,98646.50
2023-04-25T13:43:44.015Z,98645.84
2023-04-25T13:46:30.030Z,98661.94
2023-04-25T13:49:06.098Z,98655.34
2023-04-25T13:51:37.055Z,98662.72
2023-04-25T13:54:04.185Z,98667.31
2023-04-25T13:56:31.268Z,98662.81
2023-04-25T13:58:58.278Z,98672.47
2023-04-25T14:01:25.075Z,98662.84
2023-04-25T14:03:52.103Z,98656.78
2023-04-25T14:06:24.034Z,98651.41
2023-04-25T14:08:51.628Z,98669.34
2023-04-25T14:11:19.635Z,98660.38
2023-04-25T14:13:47.143Z,98670.09
2023-04-25T14:16:13.925Z,98661.84
2023-04-25T14:18:40.734Z,98671.47
2023-04-25T14:21:07.462Z,98673.13
2023-04-25T14:23:34.141Z,98676.22
2023-04-25T14:26:00.876Z,98699.13
2023-04-25T14:28:27.662Z,98687.25
2023-04-25T14:30:54.450Z,98681.72
2023-04-25T14:33:21.769Z,98685.75
2023-04-25T14:35:51.539Z,98685.38
2023-04-25T14:38:18.425Z,98678.41
2023-04-25T14:40:45.347Z,98682.88
2023-04-25T14:43:12.341Z,98686.41
2023-04-25T14:45:39.035Z,98682.38
2023-04-25T14:48:06.183Z,98689.97
2023-04-25T14:50:33.701Z,98685.91
2023-04-25T14:53:01.899Z,98683.66
2023-04-25T14:55:29.259Z,98684.34
2023-04-25T14:57:58.695Z,98678.41
2023-04-25T15:00:28.302Z,98695.13
2023-04-25T15:03:01.837Z,98689.88
2023-04-25T15:05:32.437Z,98694.00
2023-04-25T15:07:59.723Z,98698.97
2023-04-25T15:10:26.968Z,98702.03
2023-04-25T15:12:54.990Z,98707.28
2023-04-25T15:15:26.553Z,98702.00
2023-04-25T15:17:57.217Z,98702.41
2023-04-25T15:20:25.768Z,98706.03
2023-04-25T15:22:52.690Z,98710.28
2023-04-25T15:25:19.442Z,98713.16
2023-04-25T15:27:48.119Z,98715.00
2023-04-25T15:30:18.541Z,98719.97
2023-04-25T15:32:46.559Z,98727.59
2023-04-25T15:35:14.533Z,98722.66
2023-04-25T15:37:41.769Z,98728.78
2023-04-25T15:40:12.335Z,98715.84
2023-04-25T15:42:57.214Z,98725.88
2023-04-25T15:45:26.501Z,98729.81
2023-04-25T15:47:55.494Z,98729.22
2023-04-25T15:50:22.887Z,98725.09
2023-04-25T15:52:50.858Z,98721.44
2023-04-25T15:55:18.708Z,98716.41
2023-04-25T15:57:45.758Z,98722.16
2023-04-25T16:00:15.383Z,98722.13
2023-04-25T16:02:44.230Z,98713.59
2023-04-25T16:05:15.667Z,98721.34
2023-04-25T16:07:43.908Z,98723.38
2023-04-25T16:10:12.023Z,98727.34
2023-04-25T16:12:40.203Z,98715.25
2023-04-25T16:15:08.258Z,98716.00
2023-04-25T16:17:38.640Z,98725.69
2023-04-25T16:20:10.579Z,98725.53
2023-04-25T16:22:42.249Z,98724.69
2023-04-25T16:25:15.163Z,98720.44
2023-04-25T16:27:42.099Z,98724.69
2023-04-25T16:30:10.603Z,98737.03
2023-04-25T16:32:38.448Z,98722.94
2023-04-25T16:35:05.612Z,98719.34
2023-04-25T16:37:35.836Z,98723.44
2023-04-25T16:40:03.092Z,98726.28
2023-04-25T16:42:33.486Z,98728.19
2023-04-25T16:45:01.702Z,98731.59
2023-04-25T16:47:30.192Z,98736.50
2023-04-25T16:49:57.951Z,98736.13
2023-04-25T16:52:25.640Z,98739.53
2023-04-25T16:54:52.646Z,98747.00
2023-04-25T16:57:19.986Z,98737.56
2023-04-25T16:59:47.985Z,98727.47
2023-04-25T17:02:18.714Z,98735.56
2023-04-25T17:04:47.208Z,98726.88
2023-04-25T17:07:14.280Z,98735.75
2023-04-25T17:09:41.314Z,98721.13
2023-04-25T17:12:08.626Z,98733.91
2023-04-25T17:14:36.344Z,98736.00
2023-04-25T17:17:05.079Z,98726.72
2023-04-25T17:19:33.035Z,98730.94
2023-04-25T17:22:00.107Z,98740.09
2023-04-25T17:24:27.217Z,98739.16
2023-04-25T17:26:54.644Z,98738.03
2023-04-25T17:29:23.996Z,98747.06
2023-04-25T17:31:51.648Z,98753.13
2023-04-25T17:34:18.937Z,98755.34
2023-04-25T17:36:46.215Z,98760.84
2023-04-25T17:39:15.094Z,98761.72
2023-04-25T17:41:42.214Z,98767.41
2023-04-25T17:44:09.367Z,98763.97
2023-04-25T17:46:36.774Z,98775.28
2023-04-25T17:49:03.646Z,98772.34
2023-04-25T17:51:30.685Z,98774.47
2023-04-25T17:53:57.616Z,98778.16
2023-04-25T17:56:27.507Z,98779.31
2023-04-25T17:58:54.673Z,98785.50
2023-04-25T18:01:21.875Z,98786.19
2023-04-25T18:03:50.500Z,98786.06
2023-04-25T18:06:18.415Z,98793.78
2023-04-25T18:08:45.485Z,98798.47
2023-04-25T18:11:12.524Z,98797.38
2023-04-25T18:13:39.747Z,98799.44
2023-04-25T18:16:07.118Z,98804.25
2023-04-25T18:18:36.374Z,98813.09
2023-04-25T18:21:05.901Z,98813.34
2023-04-25T18:23:34.477Z,98819.28
2023-04-25T18:26:02.668Z,98816.94
2023-04-25T18:28:29.984Z,98819.03
2023-04-25T18:30:57.287Z,98827.97
2023-04-25T18:33:25.565Z,98827.56
2023-04-25T18:38:34.910Z,98844.72
2023-04-25T18:41:18.372Z,98843.09
2023-04-25T18:43:50.084Z,98849.34
2023-04-25T18:46:18.057Z,98855.97
2023-04-25T18:48:44.862Z,98853.50
2023-04-25T18:51:11.544Z,98858.22
2023-04-25T18:53:38.399Z,98855.72
2023-04-25T18:56:05.561Z,98864.06
2023-04-25T18:58:32.875Z,98874.03
2023-04-25T19:01:00.439Z,98873.00
2023-04-25T19:03:28.619Z,98883.78
2023-04-25T19:05:56.278Z,98884.66
2023-04-25T19:08:24.864Z,98893.25
2023-04-25T19:10:57.647Z,98894.69
2023-04-25T19:13:24.752Z,98897.47
2023-04-25T19:15:51.463Z,98901.16
2023-04-25T19:18:18.430Z,98900.19
2023-04-25T19:20:46.697Z,98901.41
2023-04-25T19:23:13.784Z,98900.28
2023-04-25T19:25:40.683Z,98904.03
2023-04-25T19:28:08.973Z,98907.84
2023-04-25T19:30:35.775Z,98906.47
2023-04-25T19:33:03.661Z,98910.47
2023-04-25T19:35:32.980Z,98904.63
2023-04-25T19:37:59.949Z,98908.66
2023-04-25T19:40:27.228Z,98905.34
2023-04-25T19:42:54.085Z,98914.16
2023-04-25T19:45:21.068Z,98911.03
2023-04-25T19:47:48.431Z,98912.47
2023-04-25T19:50:15.303Z,98910.06
2023-04-25T19:52:42.031Z,98916.25
2023-04-25T19:55:10.340Z,98914.16
2023-04-25T19:57:38.272Z,98907.97
2023-04-25T20:00:11.114Z,98915.13
2023-04-25T20:02:38.304Z,98921.56
2023-04-25T20:05:07.231Z,98929.28
2023-04-25T20:07:34.905Z,98926.66
2023-04-25T20:10:07.032Z,98924.34
2023-04-25T20:12:35.075Z,98931.16
2023-04-25T20:15:02.158Z,98935.88
2023-04-25T20:17:28.842Z,98932.06
2023-04-25T20:19:56.506Z,98934.28
2023-04-25T20:22:23.206Z,98931.31
2023-04-25T20:24:49.912Z,98937.97
2023-04-25T20:27:16.741Z,98930.06
2023-04-25T20:29:43.454Z,98932.56
2023-04-25T20:32:10.237Z,98933.53
2023-04-25T20:34:37.509Z,98944.91
2023-04-25T20:37:04.292Z,98948.09
2023-04-25T20:39:33.735Z,98947.13
2023-04-25T20:42:00.494Z,98954.00
2023-04-25T20:44:27.272Z,98949.00
2023-04-25T20:46:54.027Z,98949.72
2023-04-25T20:49:21.173Z,98946.19
2023-04-25T20:51:48.013Z,98947.13
2023-04-25T20:54:14.853Z,98953.69
2023-04-25T20:56:41.672Z,98962.78
2023-04-25T20:59:09.421Z,98965.09
2023-04-25T21:01:36.300Z,98960.72
2023-04-25T21:04:03.374Z,98968.06
2023-04-25T21:06:30.450Z,98959.56
2023-04-25T21:08:57.269Z,98967.75
2023-04-25T21:11:24.175Z,98969.28
2023-04-25T21:13:52.003Z,98966.44
2023-04-25T21:16:19.118Z,98971.91
2023-04-25T21:18:46.049Z,98976.09
2023-04-25T21:21:12.808Z,98972.88
2023-04-25T21:23:39.621Z,98978.81
2023-04-25T21:26:06.532Z,98972.19
2023-04-25T21:28:33.230Z,98973.94
2023-04-25T21:31:00.042Z,98980.97
2023-04-25T21:33:27.028Z,98982.28
2023-04-25T21:35:53.821Z,98983.81
2023-04-25T21:38:20.577Z,98987.25
2023-04-25T21:40:47.290Z,98983.78
2023-04-25T21:43:14.283Z,98985.81
2023-04-25T21:46:05.673Z,98982.63
2023-04-25T21:48:27.983Z,98981.91
2023-04-25T21:50:56.013Z,98982.38
2023-04-25T21:53:38.851Z,98982.03
2023-04-25T21:56:58.783Z,98982.16
2023-04-25T21:59:38.660Z,98981.44
2023-04-25T22:02:05.678Z,98977.16
2023-04-25T22:04:32.785Z,98981.59
2023-04-25T22:06:59.841Z,98986.06
2023-04-25T22:09:26.579Z,98984.78
2023-04-25T22:11:53.683Z,98989.16
2023-04-25T22:14:21.344Z,98990.47
2023-04-25T22:16:50.138Z,98991.41
2023-04-25T22:19:17.251Z,99000.56
2023-04-25T22:21:44.328Z,99002.78
2023-04-25T22:24:11.050Z,99011.22
2023-04-25T22:26:38.193Z,99004.59
2023-04-25T22:29:05.144Z,99012.53
2023-04-25T22:31:31.943Z,99009.81
2023-04-25T22:33:58.807Z,99005.31
2023-04-25T22:36:25.536Z,99008.84
2023-04-25T22:38:53.297Z,99019.53
2023-04-25T22:41:21.167Z,99013.59
2023-04-25T22:43:48.003Z,99015.38
2023-04-25T22:46:18.754Z,99012.06
2023-04-25T22:48:46.414Z,99017.06
2023-04-25T22:51:13.917Z,99010.16
2023-04-25T22:53:42.251Z,99014.09
2023-04-25T22:56:10.396Z,99020.59
2023-04-25T22:58:40.231Z,99024.38
2023-04-25T23:01:07.621Z,99024.06
2023-04-25T23:03:34.692Z,99020.13
2023-04-25T23:06:01.476Z,99017.03
2023-04-25T23:08:28.188Z,99024.63
2023-04-25T23:10:55.370Z,99027.22
2023-04-25T23:13:22.373Z,99021.16
2023-04-25T23:15:49.107Z,99032.66
2023-04-25T23:18:15.929Z,99038.72
2023-04-25T23:20:43.198Z,99033.38
2023-04-25T23:23:10.181Z,99030.41
2023-04-25T23:25:40.758Z,99030.78
2023-04-25T23:28:07.966Z,99036.22
2023-04-25T23:30:34.767Z,99039.78
2023-04-25T23:33:01.576Z,99041.63
2023-04-25T23:35:28.645Z,99044.00
2023-04-25T23:37:55.895Z,99036.88
2023-04-25T23:40:23.296Z,99040.81
2023-04-25T23:42:50.044Z,99046.31
2023-04-25T23:45:16.953Z,99039.44
2023-04-25T23:47:43.764Z,99043.09
2023-04-25T23:50:11.513Z,99045.56
2023-04-25T23:52:39.014Z,99042.09
2023-04-25T23:55:06.779Z,99055.13
2023-04-25T23:57:33.930Z,99048.47
